aviador You're here:

KOZR Decoded Metar

OZARK/CAIRNS AAF in AL, USA
Report Time2017-06-29 06:55:00
UTC Time2017-06-29 07:10:59
Flight Rules vfr VFR
Wind110° at 05 kt
W.Decomp.*RWY 06: 3.0 kt HW 4.0 kt RCW
RWY 18: 2.0 kt HW 4.6 kt LCW
W.Rank110° ranks 31
Current wind is below 110° avg. (5.0)
Visibility9999 m
Phenomena:N/A
Clouds:Few 080 Hf
Broken 150 Hf
Expected CloudBase > 800 ft AGL from Temp-Dew spread
Ceiling15,000 ft
Temp24°C (ISA +10)
Dew Point22°C (89% RH)
QNH1018 hPa
Density Alt1,601 ft
Elevation305 ft
Report Wrong Elevation
Raw Report
KOZR 290655Z AUTO 11005KT 10SM FEW080 BKN150 24/22 A3006 RMK AO2
SLP179=

Extra information for KOZR:More info

Metar Taf Metar & Taf Last 4 Metars F.Rules Stats Wind Profile Meteogram Temp Stats Airport Information Weather charts Add Link Nearby VenuesMetar ALERT Operation Metar Decoded Social comments

AIRNAV info for KOZR